Wartrace, Tennessee
Current Conditions -  °F | °C
As of 2:55 AM on Sunday 26 Oct 2014 (Local Time) from KSYI Reporting Station
Overcast Overcast  
Wind Chill: 54°   Ceiling: 100
Heat Index: 54°   Visibility: 0.25mi
Dew Point: 54°   Wind: 0mph
Humidity: 100%   Direction: NA
Pressure: 30.03"   Gusts: NA
Location:  35.53°N, 86.33°W
Report Text: KSYI 260755Z AUTO 00000KT 1/4SM OVC001 12/12 A3003 RMK
Loading
Personal Weather Stations






























Interactive Weather Map
Tropical Storm Tracking
New forecast layout! Learn more

10-Day Weather Forecast

Advertisements
Track Severe Weather on mobile